createdAt,value
2017-05-23T00:00:03.387Z,1009.22
2017-05-23T00:00:29.478Z,1009.24
2017-05-23T00:00:55.585Z,1009.27
2017-05-23T00:01:21.688Z,1009.24
2017-05-23T00:01:47.857Z,1009.29
2017-05-23T00:02:13.988Z,1009.25
2017-05-23T00:02:40.129Z,1009.26
2017-05-23T00:03:06.295Z,1009.26
2017-05-23T00:03:32.449Z,1009.25
2017-05-23T00:03:58.540Z,1009.25
2017-05-23T00:04:24.647Z,1009.25
2017-05-23T00:04:50.777Z,1009.25
2017-05-23T00:05:16.916Z,1009.24
2017-05-23T00:05:43.048Z,1009.25
2017-05-23T00:06:09.155Z,1009.22
2017-05-23T00:06:35.244Z,1009.27
2017-05-23T00:07:01.344Z,1009.27
2017-05-23T00:07:27.452Z,1009.25
2017-05-23T00:07:53.543Z,1009.26
2017-05-23T00:08:19.703Z,1009.28
2017-05-23T00:08:45.872Z,1009.28
2017-05-23T00:09:12.003Z,1009.24
2017-05-23T00:09:38.136Z,1009.29
2017-05-23T00:10:04.299Z,1009.26
2017-05-23T00:10:30.453Z,1009.29
2017-05-23T00:10:56.561Z,1009.31
2017-05-23T00:11:22.677Z,1009.27
2017-05-23T00:11:48.798Z,1009.28
2017-05-23T00:12:14.907Z,1009.29
2017-05-23T00:12:41.083Z,1009.29
2017-05-23T00:13:07.252Z,1009.23
2017-05-23T00:13:33.410Z,1009.27
2017-05-23T00:13:59.539Z,1009.31
2017-05-23T00:14:25.732Z,1009.3
2017-05-23T00:14:51.877Z,1009.23
2017-05-23T00:15:18.000Z,1009.26
2017-05-23T00:15:44.138Z,1009.23
2017-05-23T00:16:10.232Z,1009.28
2017-05-23T00:16:36.352Z,1009.21
2017-05-23T00:17:02.518Z,1009.23
2017-05-23T00:17:28.615Z,1009.24
2017-05-23T00:17:54.756Z,1009.2
2017-05-23T00:18:20.950Z,1009.21
2017-05-23T00:18:47.080Z,1009.17
2017-05-23T00:19:13.180Z,1009.21
2017-05-23T00:19:39.326Z,1009.17
2017-05-23T00:20:05.442Z,1009.19
2017-05-23T00:20:31.581Z,1009.2
2017-05-23T00:20:57.708Z,1009.18
2017-05-23T00:21:23.826Z,1009.14
2017-05-23T00:21:49.932Z,1009.16
2017-05-23T00:22:16.061Z,1009.16
2017-05-23T00:22:42.179Z,1009.14
2017-05-23T00:23:08.319Z,1009.17
2017-05-23T00:23:34.500Z,1009.16
2017-05-23T00:24:00.663Z,1009.15
2017-05-23T00:24:26.790Z,1009.16
2017-05-23T00:24:52.966Z,1009.16
2017-05-23T00:25:19.097Z,1009.14
2017-05-23T00:25:45.227Z,1009.16
2017-05-23T00:26:11.347Z,1009.15
2017-05-23T00:26:37.451Z,1009.12
2017-05-23T00:27:03.588Z,1009.11
2017-05-23T00:27:29.677Z,1009.12
2017-05-23T00:27:55.854Z,1009.11
2017-05-23T00:28:22.017Z,1009.12
2017-05-23T00:28:48.183Z,1009.12
2017-05-23T00:29:14.330Z,1009.16
2017-05-23T00:29:40.493Z,1009.14
2017-05-23T00:30:06.646Z,1009.09
2017-05-23T00:30:32.807Z,1009.13
2017-05-23T00:30:58.945Z,1009.1
2017-05-23T00:31:25.099Z,1009.12
2017-05-23T00:31:51.235Z,1009.15
2017-05-23T00:32:17.353Z,1009.13
2017-05-23T00:32:43.451Z,1009.14
2017-05-23T00:33:09.643Z,1009.11
2017-05-23T00:33:35.765Z,1009.11
2017-05-23T00:34:01.908Z,1009.14
2017-05-23T00:34:28.104Z,1009.12
2017-05-23T00:34:54.231Z,1009.13
2017-05-23T00:35:20.323Z,1009.12
2017-05-23T00:35:46.431Z,1009.09
2017-05-23T00:36:12.554Z,1009.12
2017-05-23T00:36:38.689Z,1009.09
2017-05-23T00:37:04.809Z,1009.13
2017-05-23T00:37:30.925Z,1009.13
2017-05-23T00:37:57.092Z,1009.09
2017-05-23T00:38:23.189Z,1009.1
2017-05-23T00:38:49.307Z,1009.1
2017-05-23T00:39:15.443Z,1009.06
2017-05-23T00:39:41.601Z,1009.06
2017-05-23T00:40:07.740Z,1009.08
2017-05-23T00:40:33.847Z,1009.03
2017-05-23T00:40:59.982Z,1009.07
2017-05-23T00:41:26.094Z,1009.04
2017-05-23T00:41:52.195Z,1009.03
2017-05-23T00:42:18.302Z,1009.05
2017-05-23T00:42:44.421Z,1009.03
2017-05-23T00:43:10.593Z,1009.03
2017-05-23T00:43:36.756Z,1009.03
2017-05-23T00:44:02.904Z,1009.06
2017-05-23T00:44:29.172Z,1009
2017-05-23T00:44:55.336Z,1009
2017-05-23T00:45:21.463Z,1008.99
2017-05-23T00:45:47.581Z,1008.97
2017-05-23T00:46:13.711Z,1008.96
2017-05-23T00:46:39.812Z,1008.99
2017-05-23T00:47:05.914Z,1008.96
2017-05-23T00:47:32.058Z,1008.98
2017-05-23T00:47:58.256Z,1008.96
2017-05-23T00:48:24.305Z,1008.96
2017-05-23T00:48:50.426Z,1008.97
2017-05-23T00:49:16.542Z,1008.95
2017-05-23T00:49:42.674Z,1008.96
2017-05-23T00:50:08.831Z,1008.95
2017-05-23T00:50:34.924Z,1008.96
2017-05-23T00:51:01.030Z,1008.95
2017-05-23T00:51:27.166Z,1008.96
2017-05-23T00:51:53.257Z,1008.96
2017-05-23T00:52:19.411Z,1008.98
2017-05-23T00:52:45.553Z,1009.02
2017-05-23T00:53:11.715Z,1009.02
2017-05-23T00:53:37.870Z,1009.02
2017-05-23T00:54:03.988Z,1009.03
2017-05-23T00:54:30.126Z,1009.03
2017-05-23T00:54:56.256Z,1009.01
2017-05-23T00:55:22.342Z,1009
2017-05-23T00:55:48.492Z,1009.05
2017-05-23T00:56:14.600Z,1009.03
2017-05-23T00:56:40.694Z,1008.99
2017-05-23T00:57:06.816Z,1009.01
2017-05-23T00:57:32.982Z,1009.01
2017-05-23T00:57:59.125Z,1009.02
2017-05-23T00:58:25.286Z,1009.03
2017-05-23T00:58:51.442Z,1009.01
2017-05-23T00:59:17.594Z,1009
2017-05-23T00:59:43.757Z,1009.01
2017-05-23T01:00:09.875Z,1009.02
2017-05-23T01:00:35.974Z,1009.04
2017-05-23T01:01:02.081Z,1009.06
2017-05-23T01:01:28.177Z,1009.04
2017-05-23T01:01:54.268Z,1009.07
2017-05-23T01:02:20.407Z,1009.06
2017-05-23T01:02:46.532Z,1009.04
2017-05-23T01:03:12.672Z,1009.04
2017-05-23T01:03:38.839Z,1009.05
2017-05-23T01:04:04.957Z,1009.04
2017-05-23T01:04:31.122Z,1009.05
2017-05-23T01:04:57.269Z,1009.01
2017-05-23T01:05:23.365Z,1009.06
2017-05-23T01:05:49.500Z,1009.06
2017-05-23T01:06:15.599Z,1009.04
2017-05-23T01:06:41.768Z,1009.08
2017-05-23T01:07:07.903Z,1009.06
2017-05-23T01:07:34.005Z,1009.09
2017-05-23T01:08:00.120Z,1009.11
2017-05-23T01:08:26.276Z,1009.06
2017-05-23T01:08:52.412Z,1009.08
2017-05-23T01:09:18.582Z,1009.03
2017-05-23T01:09:44.706Z,1009.07
2017-05-23T01:10:10.797Z,1009.06
2017-05-23T01:10:36.902Z,1009.05
2017-05-23T01:11:03.030Z,1009.07
2017-05-23T01:11:29.122Z,1009.05
2017-05-23T01:11:55.227Z,1009.05
2017-05-23T01:12:21.335Z,1009.05
2017-05-23T01:12:47.450Z,1009.04
2017-05-23T01:13:13.576Z,1009.07
2017-05-23T01:13:39.712Z,1009.07
2017-05-23T01:14:05.851Z,1009.06
2017-05-23T01:14:31.975Z,1009.03
2017-05-23T01:14:58.102Z,1009.08
2017-05-23T01:15:24.231Z,1009.03
2017-05-23T01:15:50.337Z,1009.06
2017-05-23T01:16:16.428Z,1009.05
2017-05-23T01:16:42.531Z,1009.06
2017-05-23T01:17:08.640Z,1009.04
2017-05-23T01:17:34.731Z,1009.05
2017-05-23T01:18:00.877Z,1009.03
2017-05-23T01:18:27.014Z,1009.03
2017-05-23T01:18:53.109Z,1009.06
2017-05-23T01:19:19.226Z,1009.07
2017-05-23T01:19:45.335Z,1009.07
2017-05-23T01:20:11.433Z,1009.05
2017-05-23T01:20:37.536Z,1009.06
2017-05-23T01:21:03.657Z,1009.05
2017-05-23T01:21:29.778Z,1009.06
2017-05-23T01:21:55.967Z,1009.06
2017-05-23T01:22:22.144Z,1009.03
2017-05-23T01:22:48.231Z,1009.04
2017-05-23T01:23:14.425Z,1009.09
2017-05-23T01:23:40.548Z,1009.05
2017-05-23T01:24:06.666Z,1009.07
2017-05-23T01:24:32.804Z,1009.01
2017-05-23T01:24:58.989Z,1009.05
2017-05-23T01:25:25.106Z,1009.07
2017-05-23T01:25:51.208Z,1009.03
2017-05-23T01:26:17.314Z,1009.05
2017-05-23T01:26:43.404Z,1009.04
2017-05-23T01:27:09.504Z,1009.01
2017-05-23T01:27:35.640Z,1009.08
2017-05-23T01:28:01.811Z,1009.02
2017-05-23T01:28:27.957Z,1009.04
2017-05-23T01:28:54.095Z,1009.04
2017-05-23T01:29:20.219Z,1009.06
2017-05-23T01:29:46.316Z,1009.05
2017-05-23T01:30:12.455Z,1009.06
2017-05-23T01:30:38.552Z,1009.07
2017-05-23T01:31:04.677Z,1009.05
2017-05-23T01:31:30.866Z,1009.05
2017-05-23T01:31:57.008Z,1009.07
2017-05-23T01:32:23.117Z,1009.08
2017-05-23T01:32:49.237Z,1009.06
2017-05-23T01:33:15.347Z,1009.04
2017-05-23T01:33:41.485Z,1009.08
2017-05-23T01:34:07.637Z,1009.04
2017-05-23T01:34:33.779Z,1009.02
2017-05-23T01:34:59.967Z,1009.03
2017-05-23T01:35:26.067Z,1009.04
2017-05-23T01:35:52.159Z,1009.01
2017-05-23T01:36:18.257Z,1009
2017-05-23T01:36:44.364Z,1009.01
2017-05-23T01:37:10.458Z,1009
2017-05-23T01:37:36.557Z,1009.01
2017-05-23T01:38:02.673Z,1009.01
2017-05-23T01:38:28.834Z,1009.01
2017-05-23T01:38:54.935Z,1009.04
2017-05-23T01:39:21.027Z,1009.06
2017-05-23T01:39:47.161Z,1009.01
2017-05-23T01:40:13.293Z,1009.01
2017-05-23T01:40:39.407Z,1009.02
2017-05-23T01:41:05.507Z,1009
2017-05-23T01:41:31.640Z,1008.99
2017-05-23T01:41:57.732Z,1009.02
2017-05-23T01:42:23.833Z,1009.01
2017-05-23T01:42:49.960Z,1009.02
2017-05-23T01:43:16.089Z,1008.99
2017-05-23T01:43:42.279Z,1008.99
2017-05-23T01:44:08.415Z,1009.02
2017-05-23T01:44:34.565Z,1008.98
2017-05-23T01:45:00.700Z,1008.99
2017-05-23T01:45:26.919Z,1008.98
2017-05-23T01:45:53.016Z,1008.99
2017-05-23T01:46:19.154Z,1008.99
2017-05-23T01:46:45.248Z,1008.96
2017-05-23T01:47:11.367Z,1009.01
2017-05-23T01:47:37.503Z,1009.01
2017-05-23T01:48:03.652Z,1008.98
2017-05-23T01:48:29.783Z,1008.95
2017-05-23T01:48:55.927Z,1009.01
2017-05-23T01:49:22.104Z,1008.99
2017-05-23T01:49:48.322Z,1008.98
2017-05-23T01:50:14.469Z,1008.95
2017-05-23T01:50:40.610Z,1008.95
2017-05-23T01:51:06.723Z,1008.97
2017-05-23T01:51:32.818Z,1008.94
2017-05-23T01:51:58.961Z,1008.95
2017-05-23T01:52:25.096Z,1008.94
2017-05-23T01:52:51.228Z,1008.91
2017-05-23T01:53:17.319Z,1008.91
2017-05-23T01:53:43.447Z,1008.93
2017-05-23T01:54:09.540Z,1008.93
2017-05-23T01:54:35.678Z,1008.91
2017-05-23T01:55:01.804Z,1008.92
2017-05-23T01:55:27.894Z,1008.9
2017-05-23T01:55:54.010Z,1008.91
2017-05-23T01:56:20.192Z,1008.93
2017-05-23T01:56:46.283Z,1008.96
2017-05-23T01:57:12.414Z,1008.94
2017-05-23T01:57:38.549Z,1008.95
2017-05-23T01:58:04.713Z,1008.95
2017-05-23T01:58:30.865Z,1008.95
2017-05-23T01:58:56.999Z,1008.95
2017-05-23T01:59:23.117Z,1008.96
2017-05-23T01:59:49.250Z,1008.97
2017-05-23T02:00:15.368Z,1008.94
2017-05-23T02:00:41.473Z,1008.97
2017-05-23T02:01:07.639Z,1008.95
2017-05-23T02:01:33.726Z,1008.93
2017-05-23T02:01:59.827Z,1008.95
2017-05-23T02:02:25.936Z,1008.92
2017-05-23T02:02:52.077Z,1008.94
2017-05-23T02:03:18.198Z,1008.96
2017-05-23T02:03:44.335Z,1008.97
2017-05-23T02:04:10.453Z,1008.95
2017-05-23T02:04:36.568Z,1008.96
2017-05-23T02:05:02.731Z,1008.96
2017-05-23T02:05:28.830Z,1008.95
2017-05-23T02:05:54.936Z,1008.98
2017-05-23T02:06:21.054Z,1008.97
2017-05-23T02:06:47.174Z,1008.96
2017-05-23T02:07:13.337Z,1008.97
2017-05-23T02:07:39.458Z,1008.96
2017-05-23T02:08:05.575Z,1008.95
2017-05-23T02:08:31.714Z,1008.99
2017-05-23T02:08:57.867Z,1008.95
2017-05-23T02:09:23.986Z,1008.95
2017-05-23T02:09:50.121Z,1008.97
2017-05-23T02:10:16.253Z,1008.92
2017-05-23T02:10:42.343Z,1008.96
2017-05-23T02:11:08.467Z,1008.94
2017-05-23T02:11:34.602Z,1008.93
2017-05-23T02:12:00.691Z,1008.92
2017-05-23T02:12:26.819Z,1008.9
2017-05-23T02:12:52.982Z,1008.91
2017-05-23T02:13:19.098Z,1008.91
2017-05-23T02:13:45.223Z,1008.92
2017-05-23T02:14:11.332Z,1008.91
2017-05-23T02:14:37.451Z,1008.89
2017-05-23T02:15:03.568Z,1008.95
2017-05-23T02:15:29.677Z,1008.91
2017-05-23T02:15:55.777Z,1008.9
2017-05-23T02:16:21.902Z,1008.9
2017-05-23T02:16:47.995Z,1008.92
2017-05-23T02:17:14.094Z,1008.93
2017-05-23T02:17:40.228Z,1008.93
2017-05-23T02:18:06.376Z,1008.94
2017-05-23T02:18:32.544Z,1008.92
2017-05-23T02:18:58.739Z,1008.93
2017-05-23T02:19:24.890Z,1008.91
2017-05-23T02:19:51.008Z,1008.93
2017-05-23T02:20:17.113Z,1008.96
2017-05-23T02:20:43.243Z,1008.97
2017-05-23T02:21:09.359Z,1008.94
2017-05-23T02:21:35.483Z,1008.98
2017-05-23T02:22:01.599Z,1008.98
2017-05-23T02:22:27.738Z,1008.97
2017-05-23T02:22:53.862Z,1009
2017-05-23T02:23:19.972Z,1009.01
2017-05-23T02:23:46.103Z,1008.96
2017-05-23T02:24:12.234Z,1008.94
2017-05-23T02:24:38.352Z,1009.01
2017-05-23T02:25:04.509Z,1008.95
2017-05-23T02:25:30.616Z,1008.97
2017-05-23T02:25:56.707Z,1008.93
2017-05-23T02:26:22.883Z,1008.94
2017-05-23T02:26:48.990Z,1008.94
2017-05-23T02:27:15.085Z,1008.94
2017-05-23T02:27:41.222Z,1008.95
2017-05-23T02:28:07.359Z,1008.96
2017-05-23T02:28:33.463Z,1008.96
2017-05-23T02:28:59.628Z,1008.97
2017-05-23T02:29:25.768Z,1008.93
2017-05-23T02:29:51.914Z,1008.96
2017-05-23T02:30:18.022Z,1008.92
2017-05-23T02:30:44.141Z,1008.95
2017-05-23T02:31:10.238Z,1008.95
2017-05-23T02:31:36.372Z,1008.95
2017-05-23T02:32:02.466Z,1008.99
2017-05-23T02:32:28.557Z,1008.98
2017-05-23T02:32:54.714Z,1008.98
2017-05-23T02:33:20.814Z,1008.97
2017-05-23T02:33:46.977Z,1009
2017-05-23T02:34:13.117Z,1008.98
2017-05-23T02:34:39.241Z,1008.98
2017-05-23T02:35:05.346Z,1008.98
2017-05-23T02:35:31.441Z,1008.96
2017-05-23T02:35:57.534Z,1008.95
2017-05-23T02:36:23.640Z,1008.96
2017-05-23T02:36:49.763Z,1008.97
2017-05-23T02:37:15.905Z,1008.94
2017-05-23T02:37:42.042Z,1008.94
2017-05-23T02:38:08.182Z,1008.94
2017-05-23T02:38:34.294Z,1008.96
2017-05-23T02:39:00.414Z,1008.98
2017-05-23T02:39:26.533Z,1008.97
2017-05-23T02:39:52.696Z,1008.95
2017-05-23T02:40:18.791Z,1008.97
2017-05-23T02:40:44.884Z,1008.96
2017-05-23T02:41:11.047Z,1008.97
2017-05-23T02:41:37.176Z,1009
2017-05-23T02:42:03.291Z,1008.99
2017-05-23T02:42:29.393Z,1008.96
2017-05-23T02:42:55.558Z,1008.97
2017-05-23T02:43:21.662Z,1008.98
2017-05-23T02:43:47.815Z,1008.95
2017-05-23T02:44:13.967Z,1008.92
2017-05-23T02:44:40.154Z,1008.98
2017-05-23T02:45:06.339Z,1008.97
2017-05-23T02:45:32.455Z,1009.02
2017-05-23T02:45:58.582Z,1008.99
2017-05-23T02:46:24.690Z,1009
2017-05-23T02:46:50.780Z,1008.99
2017-05-23T02:47:16.909Z,1008.98
2017-05-23T02:47:43.046Z,1009
2017-05-23T02:48:09.215Z,1009
2017-05-23T02:48:35.340Z,1009.03
2017-05-23T02:49:01.559Z,1009
2017-05-23T02:49:27.669Z,1009.03
2017-05-23T02:49:53.806Z,1009.01
2017-05-23T02:50:19.920Z,1009
2017-05-23T02:50:46.077Z,1008.99
2017-05-23T02:51:12.186Z,1008.95
2017-05-23T02:51:38.278Z,1009.01
2017-05-23T02:52:04.376Z,1009.01
2017-05-23T02:52:30.481Z,1009.03
2017-05-23T02:52:56.601Z,1008.99
2017-05-23T02:53:22.766Z,1008.99
2017-05-23T02:53:48.935Z,1008.99
2017-05-23T02:54:15.088Z,1008.94
2017-05-23T02:54:41.203Z,1008.98
2017-05-23T02:55:07.391Z,1009
2017-05-23T02:55:33.493Z,1008.98
2017-05-23T02:55:59.933Z,1008.97
2017-05-23T02:56:26.038Z,1008.92
2017-05-23T02:56:52.172Z,1008.91
2017-05-23T02:57:18.287Z,1008.97
2017-05-23T02:57:44.440Z,1008.91
2017-05-23T02:58:10.552Z,1008.92
2017-05-23T02:58:36.690Z,1008.93
2017-05-23T02:59:02.834Z,1008.93
2017-05-23T02:59:28.997Z,1008.94
2017-05-23T02:59:55.092Z,1008.91
2017-05-23T03:00:21.202Z,1008.93
2017-05-23T03:00:47.306Z,1008.9
2017-05-23T03:01:13.458Z,1008.92
2017-05-23T03:01:39.589Z,1008.91
2017-05-23T03:02:05.703Z,1008.92
2017-05-23T03:02:31.830Z,1008.87
2017-05-23T03:02:58.023Z,1008.9
2017-05-23T03:03:24.171Z,1008.93
2017-05-23T03:03:50.286Z,1008.9
2017-05-23T03:04:16.424Z,1008.95
2017-05-23T03:04:42.549Z,1008.92
2017-05-23T03:05:08.691Z,1008.88
2017-05-23T03:05:34.795Z,1008.87
2017-05-23T03:06:00.955Z,1008.9
2017-05-23T03:06:27.061Z,1008.88
2017-05-23T03:06:53.177Z,1008.89
2017-05-23T03:07:19.269Z,1008.9
2017-05-23T03:07:45.429Z,1008.89
2017-05-23T03:08:11.556Z,1008.88
2017-05-23T03:08:37.700Z,1008.87
2017-05-23T03:09:03.857Z,1008.8
2017-05-23T03:09:30.043Z,1008.85
2017-05-23T03:09:56.136Z,1008.84
2017-05-23T03:10:22.239Z,1008.86
2017-05-23T03:10:48.347Z,1008.81
2017-05-23T03:11:14.439Z,1008.79
2017-05-23T03:11:40.563Z,1008.76
2017-05-23T03:12:06.655Z,1008.77
2017-05-23T03:12:32.765Z,1008.84
2017-05-23T03:12:58.893Z,1008.84
2017-05-23T03:13:25.007Z,1008.82
2017-05-23T03:13:51.110Z,1008.82
2017-05-23T03:14:17.248Z,1008.78
2017-05-23T03:14:43.353Z,1008.87
2017-05-23T03:15:09.453Z,1008.84
2017-05-23T03:15:35.560Z,1008.85
2017-05-23T03:16:01.676Z,1008.84
2017-05-23T03:16:27.775Z,1008.83
2017-05-23T03:16:53.881Z,1008.82
2017-05-23T03:17:19.976Z,1008.85
2017-05-23T03:17:46.141Z,1008.81
2017-05-23T03:18:12.250Z,1008.85
2017-05-23T03:18:38.351Z,1008.85
2017-05-23T03:19:04.516Z,1008.84
2017-05-23T03:19:30.679Z,1008.86
2017-05-23T03:19:56.808Z,1008.84
2017-05-23T03:20:22.925Z,1008.83
2017-05-23T03:20:49.028Z,1008.82
2017-05-23T03:21:15.191Z,1008.83
2017-05-23T03:21:41.304Z,1008.83
2017-05-23T03:22:07.429Z,1008.78
2017-05-23T03:22:33.594Z,1008.8
2017-05-23T03:22:59.686Z,1008.78
2017-05-23T03:23:25.821Z,1008.8
2017-05-23T03:23:51.937Z,1008.8
2017-05-23T03:24:18.090Z,1008.79
2017-05-23T03:24:44.253Z,1008.79
2017-05-23T03:25:10.366Z,1008.8
2017-05-23T03:25:36.490Z,1008.78
2017-05-23T03:26:02.600Z,1008.79
2017-05-23T03:26:29.041Z,1008.81
2017-05-23T03:26:55.165Z,1008.76
2017-05-23T03:27:21.300Z,1008.78
2017-05-23T03:27:47.476Z,1008.76
2017-05-23T03:28:13.568Z,1008.76
2017-05-23T03:28:39.754Z,1008.75
2017-05-23T03:29:05.881Z,1008.74
2017-05-23T03:29:31.989Z,1008.75
2017-05-23T03:29:58.107Z,1008.75
2017-05-23T03:30:24.204Z,1008.7
2017-05-23T03:30:50.365Z,1008.75
2017-05-23T03:31:16.459Z,1008.73
2017-05-23T03:31:42.575Z,1008.73
2017-05-23T03:32:08.686Z,1008.74
2017-05-23T03:32:34.812Z,1008.72
2017-05-23T03:33:00.930Z,1008.73
2017-05-23T03:33:27.038Z,1008.76
2017-05-23T03:33:53.192Z,1008.72
2017-05-23T03:34:19.373Z,1008.75
2017-05-23T03:34:45.464Z,1008.75
2017-05-23T03:35:11.580Z,1008.76
2017-05-23T03:35:37.718Z,1008.76
2017-05-23T03:36:03.816Z,1008.75
2017-05-23T03:36:29.956Z,1008.76
2017-05-23T03:36:56.091Z,1008.76
2017-05-23T03:37:22.193Z,1008.74
2017-05-23T03:37:48.308Z,1008.75
2017-05-23T03:38:14.463Z,1008.76
2017-05-23T03:38:40.571Z,1008.75
2017-05-23T03:39:06.736Z,1008.77
2017-05-23T03:39:32.892Z,1008.8
2017-05-23T03:39:59.021Z,1008.78
2017-05-23T03:40:25.111Z,1008.73
2017-05-23T03:40:51.209Z,1008.76
2017-05-23T03:41:17.370Z,1008.75
2017-05-23T03:41:43.465Z,1008.76
2017-05-23T03:42:09.582Z,1008.76
2017-05-23T03:42:35.719Z,1008.76
2017-05-23T03:43:01.872Z,1008.76
2017-05-23T03:43:27.964Z,1008.78
2017-05-23T03:43:54.101Z,1008.75
2017-05-23T03:44:20.229Z,1008.75
2017-05-23T03:44:46.318Z,1008.77
2017-05-23T03:45:12.450Z,1008.8
2017-05-23T03:45:38.565Z,1008.78
2017-05-23T03:46:04.725Z,1008.76
2017-05-23T03:46:30.826Z,1008.77
2017-05-23T03:46:56.940Z,1008.75
2017-05-23T03:47:23.052Z,1008.76
2017-05-23T03:47:49.205Z,1008.73
2017-05-23T03:48:15.397Z,1008.77
2017-05-23T03:48:41.529Z,1008.76
2017-05-23T03:49:07.636Z,1008.75
2017-05-23T03:49:33.796Z,1008.79
2017-05-23T03:49:59.922Z,1008.78
2017-05-23T03:50:26.028Z,1008.75
2017-05-23T03:50:52.118Z,1008.75
2017-05-23T03:51:18.252Z,1008.75
2017-05-23T03:51:44.341Z,1008.76
2017-05-23T03:52:10.499Z,1008.77
2017-05-23T03:52:36.606Z,1008.76
2017-05-23T03:53:02.767Z,1008.77
2017-05-23T03:53:28.920Z,1008.75
2017-05-23T03:53:55.030Z,1008.74
2017-05-23T03:54:21.171Z,1008.77
2017-05-23T03:54:47.269Z,1008.75
2017-05-23T03:55:13.381Z,1008.75
2017-05-23T03:55:39.477Z,1008.76
2017-05-23T03:56:05.598Z,1008.74
2017-05-23T03:56:32.108Z,1008.71
2017-05-23T03:56:58.232Z,1008.74
2017-05-23T03:57:24.422Z,1008.75
2017-05-23T03:57:50.483Z,1008.76
2017-05-23T03:58:16.633Z,1008.75
2017-05-23T03:58:42.766Z,1008.75
2017-05-23T03:59:08.881Z,1008.76
2017-05-23T03:59:35.058Z,1008.74
2017-05-23T04:00:01.162Z,1008.74
2017-05-23T04:00:27.259Z,1008.77
2017-05-23T04:00:53.376Z,1008.76
2017-05-23T04:01:19.576Z,1008.76
2017-05-23T04:01:45.647Z,1008.77
2017-05-23T04:02:11.748Z,1008.78
2017-05-23T04:02:37.842Z,1008.78
2017-05-23T04:03:03.961Z,1008.79
2017-05-23T04:03:30.123Z,1008.8
2017-05-23T04:03:56.250Z,1008.78
2017-05-23T04:04:22.368Z,1008.76
2017-05-23T04:04:48.504Z,1008.8
2017-05-23T04:05:14.633Z,1008.76
2017-05-23T04:05:40.725Z,1008.77
2017-05-23T04:06:06.853Z,1008.8
2017-05-23T04:06:32.991Z,1008.8
2017-05-23T04:06:59.127Z,1008.8
2017-05-23T04:07:25.260Z,1008.76
2017-05-23T04:07:51.407Z,1008.77
2017-05-23T04:08:17.569Z,1008.8
2017-05-23T04:08:43.699Z,1008.79
2017-05-23T04:09:09.809Z,1008.81
2017-05-23T04:09:35.940Z,1008.8
2017-05-23T04:10:02.078Z,1008.81
2017-05-23T04:10:28.170Z,1008.81
2017-05-23T04:10:54.269Z,1008.84
2017-05-23T04:11:20.404Z,1008.8
2017-05-23T04:11:46.522Z,1008.85
2017-05-23T04:12:12.670Z,1008.84
2017-05-23T04:12:38.778Z,1008.86
2017-05-23T04:13:04.927Z,1008.86
2017-05-23T04:13:31.092Z,1008.84
2017-05-23T04:13:57.206Z,1008.81
2017-05-23T04:14:23.334Z,1008.84
2017-05-23T04:14:49.466Z,1008.8
2017-05-23T04:15:15.582Z,1008.82
2017-05-23T04:15:41.678Z,1008.81
2017-05-23T04:16:07.785Z,1008.81
2017-05-23T04:16:33.880Z,1008.83
2017-05-23T04:16:59.978Z,1008.79
2017-05-23T04:17:26.165Z,1008.83
2017-05-23T04:17:52.317Z,1008.81
2017-05-23T04:18:18.460Z,1008.83
2017-05-23T04:18:44.621Z,1008.84
2017-05-23T04:19:10.714Z,1008.82
2017-05-23T04:19:36.850Z,1008.81
2017-05-23T04:20:02.978Z,1008.82
2017-05-23T04:20:29.094Z,1008.81
2017-05-23T04:20:55.201Z,1008.81
2017-05-23T04:21:21.297Z,1008.8
2017-05-23T04:21:47.387Z,1008.82
2017-05-23T04:22:13.492Z,1008.74
2017-05-23T04:22:39.593Z,1008.77
2017-05-23T04:23:05.758Z,1008.79
2017-05-23T04:23:31.889Z,1008.84
2017-05-23T04:23:57.994Z,1008.84
2017-05-23T04:24:24.159Z,1008.81
2017-05-23T04:24:50.314Z,1008.79
2017-05-23T04:25:16.447Z,1008.79
2017-05-23T04:25:42.539Z,1008.8
2017-05-23T04:26:08.639Z,1008.83
2017-05-23T04:26:34.746Z,1008.8
2017-05-23T04:27:00.839Z,1008.82
2017-05-23T04:27:26.956Z,1008.84
2017-05-23T04:27:53.094Z,1008.79
2017-05-23T04:28:19.192Z,1008.81
2017-05-23T04:28:45.313Z,1008.82
2017-05-23T04:29:11.493Z,1008.81
2017-05-23T04:29:37.590Z,1008.85
2017-05-23T04:30:03.743Z,1008.81
2017-05-23T04:30:29.865Z,1008.79
2017-05-23T04:30:55.955Z,1008.81
2017-05-23T04:31:22.066Z,1008.81
2017-05-23T04:31:48.164Z,1008.83
2017-05-23T04:32:14.284Z,1008.8
2017-05-23T04:32:40.420Z,1008.85
2017-05-23T04:33:06.578Z,1008.85
2017-05-23T04:33:32.720Z,1008.81
2017-05-23T04:33:58.901Z,1008.81
2017-05-23T04:34:25.035Z,1008.83
2017-05-23T04:34:51.171Z,1008.82
2017-05-23T04:35:17.327Z,1008.86
2017-05-23T04:35:43.474Z,1008.86
2017-05-23T04:36:09.610Z,1008.87
2017-05-23T04:36:35.712Z,1008.86
2017-05-23T04:37:01.802Z,1008.84
2017-05-23T04:37:27.929Z,1008.81
2017-05-23T04:37:54.093Z,1008.85
2017-05-23T04:38:20.207Z,1008.86
2017-05-23T04:38:46.362Z,1008.83
2017-05-23T04:39:12.469Z,1008.85
2017-05-23T04:39:38.585Z,1008.82
2017-05-23T04:40:04.683Z,1008.84
2017-05-23T04:40:30.787Z,1008.86
2017-05-23T04:40:56.881Z,1008.84
2017-05-23T04:41:22.989Z,1008.84
2017-05-23T04:41:49.127Z,1008.85
2017-05-23T04:42:15.227Z,1008.85
2017-05-23T04:42:41.362Z,1008.85
2017-05-23T04:43:07.502Z,1008.85
2017-05-23T04:43:33.625Z,1008.83
2017-05-23T04:43:59.760Z,1008.82
2017-05-23T04:44:25.882Z,1008.87
2017-05-23T04:44:52.047Z,1008.86
2017-05-23T04:45:18.185Z,1008.87
2017-05-23T04:45:44.285Z,1008.89
2017-05-23T04:46:10.401Z,1008.91
2017-05-23T04:46:36.530Z,1008.96
2017-05-23T04:47:02.648Z,1008.95
2017-05-23T04:47:28.837Z,1008.96
2017-05-23T04:47:54.957Z,1008.97
2017-05-23T04:48:21.076Z,1008.99
2017-05-23T04:48:47.243Z,1008.97
2017-05-23T04:49:13.399Z,1008.98
2017-05-23T04:49:39.539Z,1008.97
2017-05-23T04:50:05.643Z,1008.98
2017-05-23T04:50:31.746Z,1008.95
2017-05-23T04:50:57.838Z,1008.96
2017-05-23T04:51:23.996Z,1008.92
2017-05-23T04:51:50.131Z,1008.92
2017-05-23T04:52:16.251Z,1008.96
2017-05-23T04:52:42.373Z,1008.95
2017-05-23T04:53:08.463Z,1008.97
2017-05-23T04:53:34.625Z,1008.98
2017-05-23T04:54:00.781Z,1008.92
2017-05-23T04:54:26.899Z,1008.93
2017-05-23T04:54:53.051Z,1008.93
2017-05-23T04:55:19.190Z,1008.92
2017-05-23T04:55:45.277Z,1008.92
2017-05-23T04:56:11.376Z,1008.93
2017-05-23T04:56:37.485Z,1008.92
2017-05-23T04:57:03.575Z,1008.95
2017-05-23T04:57:29.699Z,1008.95
2017-05-23T04:57:55.829Z,1008.92
2017-05-23T04:58:21.961Z,1008.93
2017-05-23T04:58:48.123Z,1008.99
2017-05-23T04:59:14.261Z,1008.94
2017-05-23T04:59:40.363Z,1008.94
2017-05-23T05:00:06.498Z,1008.95
2017-05-23T05:00:32.616Z,1008.92
2017-05-23T05:00:58.714Z,1008.92
2017-05-23T05:01:24.850Z,1008.96
2017-05-23T05:01:50.946Z,1008.96
2017-05-23T05:02:17.067Z,1008.92
2017-05-23T05:02:43.178Z,1008.95
2017-05-23T05:03:09.301Z,1008.94
2017-05-23T05:03:35.434Z,1008.92
2017-05-23T05:04:01.552Z,1008.92
2017-05-23T05:04:27.675Z,1008.96
2017-05-23T05:04:53.812Z,1008.92
2017-05-23T05:05:19.906Z,1008.94
2017-05-23T05:05:45.999Z,1008.96
2017-05-23T05:06:12.137Z,1008.91
2017-05-23T05:06:38.263Z,1008.93
2017-05-23T05:07:04.380Z,1008.96
2017-05-23T05:07:30.489Z,1008.92
2017-05-23T05:07:56.617Z,1008.96
2017-05-23T05:08:22.734Z,1008.96
2017-05-23T05:08:48.890Z,1008.96
2017-05-23T05:09:15.027Z,1008.96
2017-05-23T05:09:41.165Z,1008.98
2017-05-23T05:10:07.265Z,1008.98
2017-05-23T05:10:33.400Z,1008.98
2017-05-23T05:10:59.492Z,1008.96
2017-05-23T05:11:25.613Z,1008.97
2017-05-23T05:11:51.777Z,1008.96
2017-05-23T05:12:17.874Z,1008.94
2017-05-23T05:12:43.968Z,1008.93
2017-05-23T05:13:10.106Z,1008.95
2017-05-23T05:13:36.205Z,1008.96
2017-05-23T05:14:02.347Z,1008.92
2017-05-23T05:14:28.453Z,1008.98
2017-05-23T05:14:54.599Z,1008.96
2017-05-23T05:15:20.706Z,1008.99
2017-05-23T05:15:46.800Z,1008.98
2017-05-23T05:16:12.892Z,1009.02
2017-05-23T05:16:39.007Z,1009.01
2017-05-23T05:17:05.106Z,1008.99